createdAt,value
2018-03-14T00:01:02.438Z,4.90
2018-03-14T00:03:30.922Z,4.27
2018-03-14T00:05:59.395Z,3.77
2018-03-14T00:08:27.917Z,3.23
2018-03-14T00:10:56.397Z,3.30
2018-03-14T00:13:24.926Z,2.93
2018-03-14T00:15:53.434Z,2.60
2018-03-14T00:18:21.915Z,2.73
2018-03-14T00:20:50.430Z,2.70
2018-03-14T00:23:18.922Z,2.57
2018-03-14T00:25:47.469Z,3.00
2018-03-14T00:28:15.958Z,2.87
2018-03-14T00:30:44.435Z,2.80
2018-03-14T00:33:12.961Z,2.70
2018-03-14T00:35:41.422Z,2.90
2018-03-14T00:38:09.897Z,3.10
2018-03-14T00:40:38.449Z,3.10
2018-03-14T00:43:06.936Z,2.97
2018-03-14T00:45:35.406Z,3.10
2018-03-14T00:48:03.918Z,2.90
2018-03-14T00:50:32.412Z,2.80
2018-03-14T00:53:00.954Z,2.87
2018-03-14T00:55:29.497Z,3.40
2018-03-14T00:57:58.010Z,3.33
2018-03-14T01:00:26.502Z,3.40
2018-03-14T01:02:55.013Z,3.60
2018-03-14T01:05:23.518Z,4.03
2018-03-14T01:07:52.025Z,4.70
2018-03-14T01:10:20.492Z,4.20
2018-03-14T01:12:49.025Z,3.97
2018-03-14T01:15:17.535Z,5.50
2018-03-14T01:17:46.050Z,5.17
2018-03-14T01:20:14.574Z,4.50
2018-03-14T01:22:43.050Z,5.17
2018-03-14T01:25:11.570Z,4.63
2018-03-14T01:27:40.054Z,5.47
2018-03-14T01:30:08.525Z,7.10
2018-03-14T01:32:37.086Z,6.47
2018-03-14T01:35:05.592Z,6.63
2018-03-14T01:37:34.110Z,5.97
2018-03-14T01:40:02.634Z,4.63
2018-03-14T01:42:31.134Z,2.63
2018-03-14T01:44:59.649Z,2.13
2018-03-14T01:47:28.130Z,2.27
2018-03-14T01:49:56.650Z,2.07
2018-03-14T01:52:25.157Z,2.10
2018-03-14T01:54:53.654Z,1.70
2018-03-14T01:57:22.166Z,2.53
2018-03-14T01:59:50.649Z,2.53
2018-03-14T02:02:19.143Z,2.27
2018-03-14T02:04:47.661Z,1.97
2018-03-14T02:07:16.162Z,2.57
2018-03-14T02:09:44.660Z,2.23
2018-03-14T02:12:13.177Z,2.50
2018-03-14T02:14:41.676Z,1.67
2018-03-14T02:17:10.197Z,2.17
2018-03-14T02:19:38.674Z,2.13
2018-03-14T02:22:07.174Z,1.90
2018-03-14T02:24:35.702Z,2.20
2018-03-14T02:27:04.202Z,2.07
2018-03-14T02:29:32.677Z,2.43
2018-03-14T02:32:01.203Z,1.87
2018-03-14T02:34:29.674Z,2.17
2018-03-14T02:37:04.906Z,2.00
2018-03-14T02:39:33.404Z,2.10
2018-03-14T02:42:01.930Z,2.00
2018-03-14T02:44:30.393Z,1.67
2018-03-14T02:46:58.938Z,2.20
2018-03-14T02:49:27.433Z,1.93
2018-03-14T02:51:55.922Z,2.00
2018-03-14T02:54:24.426Z,2.03
2018-03-14T02:56:52.881Z,2.13
2018-03-14T02:59:21.370Z,1.80
2018-03-14T03:01:49.817Z,2.10
2018-03-14T03:04:18.270Z,2.00
2018-03-14T03:06:50.679Z,2.47
2018-03-14T03:09:19.178Z,2.23
2018-03-14T03:11:47.686Z,2.00
2018-03-14T03:14:16.140Z,2.30
2018-03-14T03:16:44.634Z,2.63
2018-03-14T03:19:13.093Z,2.30
2018-03-14T03:21:41.589Z,2.20
2018-03-14T03:24:10.062Z,2.77
2018-03-14T03:26:38.562Z,2.93
2018-03-14T03:29:07.005Z,2.60
2018-03-14T03:31:35.494Z,2.57
2018-03-14T03:34:03.949Z,2.50
2018-03-14T03:36:32.437Z,2.40
2018-03-14T03:39:00.952Z,2.43
2018-03-14T03:41:29.437Z,2.63
2018-03-14T03:43:57.895Z,2.50
2018-03-14T03:46:26.378Z,2.40
2018-03-14T03:48:54.835Z,2.50
2018-03-14T03:51:23.352Z,2.93
2018-03-14T03:53:51.822Z,2.87
2018-03-14T03:56:20.329Z,2.70
2018-03-14T03:58:48.822Z,2.80
2018-03-14T04:01:17.269Z,2.50
2018-03-14T04:03:45.719Z,2.93
2018-03-14T04:06:14.218Z,2.93
2018-03-14T04:08:42.702Z,3.10
2018-03-14T04:11:11.158Z,3.40
2018-03-14T04:13:39.651Z,3.17
2018-03-14T04:16:08.142Z,3.50
2018-03-14T04:18:36.680Z,3.93
2018-03-14T04:21:05.171Z,3.40
2018-03-14T04:23:33.622Z,3.97
2018-03-14T04:26:02.130Z,3.80
2018-03-14T04:28:30.618Z,3.80
2018-03-14T04:30:59.134Z,3.90
2018-03-14T04:33:27.589Z,3.60
2018-03-14T04:35:56.077Z,3.70
2018-03-14T04:38:24.566Z,3.77
2018-03-14T04:40:53.057Z,3.63
2018-03-14T04:43:21.534Z,3.70
2018-03-14T04:45:50.018Z,3.23
2018-03-14T04:48:18.506Z,3.67
2018-03-14T04:50:46.966Z,3.13
2018-03-14T04:53:15.449Z,3.20
2018-03-14T04:55:43.935Z,3.20
2018-03-14T04:58:12.418Z,3.30
2018-03-14T05:00:40.865Z,3.10
2018-03-14T05:03:09.354Z,3.07
2018-03-14T05:05:37.816Z,3.10
2018-03-14T05:08:06.314Z,3.33
2018-03-14T05:10:34.762Z,3.50
2018-03-14T05:13:03.258Z,2.63
2018-03-14T05:15:31.747Z,3.20
2018-03-14T05:18:00.218Z,3.63
2018-03-14T05:20:28.702Z,3.70
2018-03-14T05:22:57.146Z,3.43
2018-03-14T05:25:25.647Z,3.80
2018-03-14T05:27:54.099Z,3.90
2018-03-14T05:30:22.586Z,3.63
2018-03-14T05:32:51.038Z,3.90
2018-03-14T05:35:19.545Z,3.80
2018-03-14T05:37:47.994Z,4.80
2018-03-14T05:40:16.489Z,5.73
2018-03-14T05:42:44.969Z,4.47
2018-03-14T05:45:13.475Z,4.40
2018-03-14T05:47:41.981Z,4.57
2018-03-14T05:50:10.471Z,4.37
2018-03-14T05:52:39.014Z,4.00
2018-03-14T05:55:07.461Z,3.80
2018-03-14T05:57:35.926Z,3.80
2018-03-14T06:00:04.490Z,4.00
2018-03-14T06:02:32.990Z,4.70
2018-03-14T06:05:01.544Z,4.30
2018-03-14T06:07:30.050Z,3.70
2018-03-14T06:09:58.542Z,3.57
2018-03-14T06:12:27.007Z,3.13
2018-03-14T06:14:55.498Z,3.50
2018-03-14T06:17:23.967Z,3.47
2018-03-14T06:19:52.462Z,3.10
2018-03-14T06:22:20.965Z,2.93
2018-03-14T06:24:49.425Z,3.10
2018-03-14T06:27:17.937Z,3.00
2018-03-14T06:29:46.388Z,3.10
2018-03-14T06:32:14.843Z,2.90
2018-03-14T06:34:43.350Z,4.00
2018-03-14T06:37:11.855Z,3.20
2018-03-14T06:39:40.355Z,2.77
2018-03-14T06:42:08.877Z,4.10
2018-03-14T06:44:37.499Z,3.13
2018-03-14T06:47:05.988Z,3.80
2018-03-14T06:49:34.492Z,3.37
2018-03-14T06:52:02.977Z,3.67
2018-03-14T06:54:31.470Z,3.53
2018-03-14T06:56:59.941Z,6.00
2018-03-14T06:59:40.001Z,3.57
2018-03-14T07:02:20.066Z,3.40
2018-03-14T07:05:00.863Z,4.23
2018-03-14T07:07:29.326Z,3.20
2018-03-14T07:09:57.847Z,4.07
2018-03-14T07:12:26.358Z,2.90
2018-03-14T07:14:54.838Z,3.30
2018-03-14T07:17:23.412Z,3.37
2018-03-14T07:19:51.877Z,4.77
2018-03-14T07:22:20.417Z,3.20
2018-03-14T07:24:48.878Z,2.80
2018-03-14T07:27:17.430Z,3.03
2018-03-14T07:29:45.901Z,3.90
2018-03-14T07:32:14.415Z,2.90
2018-03-14T07:34:42.901Z,2.90
2018-03-14T07:37:11.394Z,2.53
2018-03-14T07:39:39.894Z,3.67
2018-03-14T07:42:08.394Z,3.40
2018-03-14T07:44:36.896Z,3.00
2018-03-14T07:47:05.378Z,3.00
2018-03-14T07:49:33.887Z,2.53
2018-03-14T07:52:02.382Z,2.83
2018-03-14T07:54:30.791Z,2.43
2018-03-14T07:56:59.225Z,2.80
2018-03-14T07:59:27.627Z,3.03
2018-03-14T08:01:56.064Z,3.27
2018-03-14T08:04:24.492Z,3.47
2018-03-14T08:06:52.884Z,3.03
2018-03-14T08:09:21.312Z,4.40
2018-03-14T08:11:49.763Z,3.40
2018-03-14T08:14:18.192Z,3.30
2018-03-14T08:16:46.625Z,3.70
2018-03-14T08:19:15.054Z,3.53
2018-03-14T08:21:43.582Z,2.73
2018-03-14T08:24:11.977Z,2.90
2018-03-14T08:26:40.413Z,3.40
2018-03-14T08:29:08.836Z,3.27
2018-03-14T08:31:37.245Z,4.63
2018-03-14T08:34:06.022Z,7.30
2018-03-14T08:36:34.469Z,3.60
2018-03-14T08:39:03.029Z,3.63
2018-03-14T08:41:31.575Z,3.93
2018-03-14T08:44:01.013Z,2.90
2018-03-14T08:46:29.506Z,3.97
2018-03-14T08:48:58.026Z,4.23
2018-03-14T08:51:26.486Z,3.80
2018-03-14T08:53:54.974Z,3.10
2018-03-14T08:56:23.486Z,5.70
2018-03-14T08:58:51.985Z,3.87
2018-03-14T09:01:20.447Z,2.80
2018-03-14T09:03:48.983Z,3.90
2018-03-14T09:06:17.449Z,3.03
2018-03-14T09:08:46.075Z,2.77
2018-03-14T09:11:14.698Z,4.37
2018-03-14T09:13:43.282Z,4.17
2018-03-14T09:16:11.814Z,5.33
2018-03-14T09:18:41.299Z,3.60
2018-03-14T09:21:11.151Z,2.83
2018-03-14T09:23:39.686Z,3.30
2018-03-14T09:26:08.238Z,3.27
2018-03-14T09:28:36.780Z,3.60
2018-03-14T09:31:05.443Z,3.13
2018-03-14T09:33:33.911Z,2.80
2018-03-14T09:36:02.403Z,3.37
2018-03-14T09:38:30.871Z,4.70
2018-03-14T09:40:59.377Z,3.50
2018-03-14T09:43:27.842Z,3.00
2018-03-14T09:45:56.371Z,3.13
2018-03-14T09:48:24.829Z,1.93
2018-03-14T09:50:53.303Z,2.50
2018-03-14T09:53:21.815Z,2.73
2018-03-14T09:55:50.311Z,3.60
2018-03-14T09:58:18.766Z,3.07
2018-03-14T10:00:47.311Z,3.10
2018-03-14T10:03:15.778Z,2.83
2018-03-14T10:05:44.293Z,2.60
2018-03-14T10:08:12.763Z,3.73
2018-03-14T10:10:41.258Z,2.37
2018-03-14T10:13:09.710Z,2.93
2018-03-14T10:15:38.210Z,3.17
2018-03-14T10:18:06.770Z,2.70
2018-03-14T10:20:35.226Z,3.27
2018-03-14T10:23:03.744Z,3.57
2018-03-14T10:25:32.316Z,3.30
2018-03-14T10:28:00.782Z,2.60
2018-03-14T10:30:29.244Z,5.13
2018-03-14T10:32:57.774Z,2.70
2018-03-14T10:35:26.279Z,3.13
2018-03-14T10:37:54.769Z,2.90
2018-03-14T10:40:23.240Z,2.60
2018-03-14T10:42:51.756Z,2.90
2018-03-14T10:45:20.214Z,2.50
2018-03-14T10:47:48.702Z,2.63
2018-03-14T10:50:17.172Z,2.30
2018-03-14T10:52:45.682Z,2.67
2018-03-14T10:55:14.154Z,2.50
2018-03-14T10:57:42.625Z,4.10
2018-03-14T11:00:16.762Z,2.60
2018-03-14T11:02:50.693Z,1.80
2018-03-14T11:05:19.216Z,2.73
2018-03-14T11:07:47.739Z,2.80
2018-03-14T11:10:16.262Z,1.87
2018-03-14T11:12:44.757Z,2.67
2018-03-14T11:15:13.223Z,1.90
2018-03-14T11:17:41.718Z,2.37
2018-03-14T11:20:10.214Z,2.47
2018-03-14T11:22:38.667Z,2.60
2018-03-14T11:25:07.126Z,2.80
2018-03-14T11:27:35.689Z,2.40
2018-03-14T11:30:04.302Z,2.67
2018-03-14T11:32:32.802Z,2.80
2018-03-14T11:35:01.262Z,2.27
2018-03-14T11:37:29.793Z,2.63
2018-03-14T11:59:05.495Z,3.80
2018-03-14T12:01:34.014Z,2.70
2018-03-14T12:04:02.543Z,3.70
2018-03-14T12:06:31.131Z,3.40
2018-03-14T12:08:59.642Z,3.10
2018-03-14T12:11:28.097Z,3.30
2018-03-14T12:13:56.571Z,2.80
2018-03-14T12:16:25.095Z,3.07
2018-03-14T12:18:53.752Z,3.57
2018-03-14T12:21:22.251Z,2.83
2018-03-14T12:23:50.718Z,4.13
2018-03-14T12:26:19.348Z,3.47
2018-03-14T12:28:47.813Z,3.83
2018-03-14T12:31:16.314Z,3.10
2018-03-14T12:33:44.862Z,2.93
2018-03-14T12:36:13.366Z,3.13
2018-03-14T12:38:41.822Z,3.33
2018-03-14T12:41:10.394Z,3.57
2018-03-14T12:43:38.853Z,3.17
2018-03-14T12:46:07.321Z,3.60
2018-03-14T12:48:35.857Z,2.93
2018-03-14T12:51:04.383Z,3.83
2018-03-14T12:53:32.881Z,3.67
2018-03-14T12:56:01.370Z,4.30
2018-03-14T12:58:29.917Z,3.77
2018-03-14T13:00:58.438Z,3.40
2018-03-14T13:03:26.973Z,3.87
2018-03-14T13:05:55.486Z,4.43
2018-03-14T13:08:23.942Z,4.97
2018-03-14T13:10:52.454Z,5.20
2018-03-14T13:13:20.909Z,4.20
2018-03-14T13:15:49.401Z,4.53
2018-03-14T13:18:17.874Z,4.90
2018-03-14T13:20:46.362Z,3.73
2018-03-14T13:23:14.825Z,4.37
2018-03-14T13:25:43.345Z,4.33
2018-03-14T13:28:11.869Z,3.83
2018-03-14T13:30:40.347Z,4.27
2018-03-14T13:33:08.841Z,4.40
2018-03-14T13:35:37.306Z,3.20
2018-03-14T13:38:06.619Z,3.43
2018-03-14T13:40:35.129Z,3.13
2018-03-14T13:43:03.626Z,4.43
2018-03-14T13:45:32.142Z,4.20
2018-03-14T13:48:00.646Z,4.23
2018-03-14T13:50:29.158Z,3.30
2018-03-14T13:52:57.694Z,3.00
2018-03-14T13:55:26.201Z,3.50
2018-03-14T13:57:54.746Z,2.90
2018-03-14T14:00:23.249Z,2.60
2018-03-14T14:02:52.657Z,4.57
2018-03-14T14:05:21.164Z,3.20
2018-03-14T14:07:49.699Z,3.00
2018-03-14T14:10:18.154Z,3.20
2018-03-14T14:12:46.668Z,3.47
2018-03-14T14:15:15.172Z,3.30
2018-03-14T14:17:43.670Z,3.20
2018-03-14T14:20:12.203Z,2.77
2018-03-14T14:22:40.671Z,3.20
2018-03-14T14:25:09.177Z,3.47
2018-03-14T14:27:37.665Z,2.50
2018-03-14T14:30:06.148Z,2.20
2018-03-14T14:32:34.606Z,2.60
2018-03-14T14:35:03.157Z,4.50
2018-03-14T14:37:31.664Z,3.50
2018-03-14T14:40:00.178Z,3.03
2018-03-14T14:42:28.979Z,3.23
2018-03-14T14:44:57.553Z,3.47
2018-03-14T14:47:26.022Z,5.07
2018-03-14T14:49:54.540Z,4.18
2018-03-14T14:52:23.034Z,3.70
2018-03-14T14:54:51.510Z,3.80
2018-03-14T14:57:20.014Z,3.87
2018-03-14T14:59:48.499Z,3.63
2018-03-14T15:02:16.982Z,2.90
2018-03-14T15:04:45.437Z,3.80
2018-03-14T15:07:13.965Z,4.23
2018-03-14T15:09:42.474Z,4.57
2018-03-14T15:12:11.010Z,5.57
2018-03-14T15:14:39.466Z,4.77
2018-03-14T15:17:07.926Z,4.40
2018-03-14T15:19:36.430Z,3.30
2018-03-14T15:22:04.893Z,3.90
2018-03-14T15:24:33.379Z,3.70
2018-03-14T15:27:01.871Z,2.70
2018-03-14T15:29:30.330Z,3.00
2018-03-14T15:31:58.838Z,5.27
2018-03-14T15:34:27.396Z,3.60
2018-03-14T15:36:55.957Z,3.93
2018-03-14T15:39:24.422Z,4.00
2018-03-14T15:41:52.927Z,3.80
2018-03-14T15:44:21.432Z,3.70
2018-03-14T15:46:49.894Z,3.83
2018-03-14T15:49:18.351Z,3.40
2018-03-14T15:51:46.844Z,3.63
2018-03-14T15:54:15.299Z,3.80
2018-03-14T15:56:43.814Z,3.73
2018-03-14T15:59:12.279Z,4.03
2018-03-14T16:01:40.729Z,4.40
2018-03-14T16:04:09.214Z,3.67
2018-03-14T16:06:37.671Z,3.93
2018-03-14T16:09:06.230Z,4.20
2018-03-14T16:11:34.692Z,3.30
2018-03-14T16:14:03.213Z,3.40
2018-03-14T16:16:31.678Z,3.90
2018-03-14T16:19:00.133Z,2.90
2018-03-14T16:21:28.643Z,3.10
2018-03-14T16:23:57.129Z,3.63
2018-03-14T16:26:25.571Z,3.50
2018-03-14T16:28:54.067Z,3.77
2018-03-14T16:31:22.572Z,3.73
2018-03-14T16:33:51.018Z,3.60
2018-03-14T16:36:19.481Z,4.00
2018-03-14T16:38:47.972Z,4.30
2018-03-14T16:41:16.434Z,3.97
2018-03-14T16:43:44.926Z,3.70
2018-03-14T16:46:13.378Z,4.10
2018-03-14T16:48:41.857Z,4.27
2018-03-14T16:51:10.364Z,4.27
2018-03-14T16:53:38.813Z,4.83
2018-03-14T16:56:07.263Z,4.20
2018-03-14T16:58:35.746Z,4.33
2018-03-14T17:01:04.238Z,4.47
2018-03-14T17:03:32.714Z,4.03
2018-03-14T17:06:01.196Z,4.60
2018-03-14T17:08:29.703Z,4.50
2018-03-14T17:10:58.189Z,5.07
2018-03-14T17:13:26.708Z,6.30
2018-03-14T17:15:55.164Z,6.03
2018-03-14T17:18:23.659Z,6.70
2018-03-14T17:20:52.128Z,5.80
2018-03-14T17:23:20.610Z,5.30
2018-03-14T17:25:49.105Z,6.27
2018-03-14T17:28:17.590Z,6.43
2018-03-14T17:30:46.077Z,6.83
2018-03-14T17:33:14.571Z,7.60
2018-03-14T17:35:43.027Z,7.23
2018-03-14T17:38:11.558Z,7.40
2018-03-14T17:40:40.034Z,7.13
2018-03-14T17:43:08.550Z,7.80
2018-03-14T17:45:37.034Z,7.30
2018-03-14T17:48:05.510Z,7.10
2018-03-14T17:50:34.009Z,7.40
2018-03-14T17:53:02.504Z,7.40
2018-03-14T17:55:31.001Z,8.10
2018-03-14T17:57:59.468Z,7.63
2018-03-14T18:00:27.980Z,7.93
2018-03-14T18:02:56.480Z,7.17
2018-03-14T18:05:24.970Z,6.50
2018-03-14T18:07:53.482Z,6.90
2018-03-14T18:10:21.930Z,7.67
2018-03-14T18:12:50.423Z,5.97
2018-03-14T18:15:18.932Z,6.23
2018-03-14T18:17:47.403Z,5.67
2018-03-14T18:20:15.854Z,5.50
2018-03-14T18:22:44.370Z,4.80
2018-03-14T18:25:12.826Z,4.90
2018-03-14T18:27:41.318Z,4.70
2018-03-14T18:30:09.932Z,4.17
2018-03-14T18:32:38.432Z,4.07
2018-03-14T18:35:06.922Z,4.00
2018-03-14T18:37:35.414Z,3.70
2018-03-14T18:40:03.906Z,4.20
2018-03-14T18:42:32.403Z,4.00
2018-03-14T18:45:00.892Z,3.87
2018-03-14T18:47:29.358Z,3.70
2018-03-14T18:49:57.849Z,3.67
2018-03-14T18:52:26.298Z,3.73
2018-03-14T18:54:54.781Z,3.83
2018-03-14T18:57:23.280Z,4.20
2018-03-14T18:59:51.802Z,3.67
2018-03-14T19:02:20.258Z,4.03
2018-03-14T19:04:48.761Z,4.00
2018-03-14T19:07:17.225Z,4.33
2018-03-14T19:09:45.772Z,4.20
2018-03-14T19:12:14.237Z,4.40
2018-03-14T19:14:42.690Z,4.10
2018-03-14T19:17:11.192Z,4.70
2018-03-14T19:19:39.745Z,4.40
2018-03-14T19:22:08.195Z,3.60
2018-03-14T19:24:36.660Z,3.70
2018-03-14T19:27:05.150Z,3.20
2018-03-14T19:29:33.607Z,3.50
2018-03-14T19:32:02.106Z,3.03
2018-03-14T19:34:30.606Z,2.90
2018-03-14T19:36:59.095Z,2.97
2018-03-14T19:39:27.541Z,3.10
2018-03-14T19:41:56.077Z,3.80
2018-03-14T19:44:24.586Z,3.57
2018-03-14T19:46:53.066Z,4.23
2018-03-14T19:49:21.518Z,3.77
2018-03-14T19:51:50.002Z,3.80
2018-03-14T19:54:18.445Z,3.73
2018-03-14T19:56:46.968Z,3.57
2018-03-14T19:59:15.432Z,3.83
2018-03-14T20:01:43.960Z,3.63
2018-03-14T20:04:12.458Z,5.57
2018-03-14T20:06:40.928Z,4.33
2018-03-14T20:09:09.495Z,4.33
2018-03-14T20:11:37.930Z,4.07
2018-03-14T20:14:06.436Z,4.47
2018-03-14T20:16:34.889Z,4.83
2018-03-14T20:19:03.378Z,4.70
2018-03-14T20:21:31.878Z,4.80
2018-03-14T20:24:00.326Z,5.40
2018-03-14T20:26:28.821Z,5.47
2018-03-14T20:28:57.290Z,5.77
2018-03-14T20:31:25.759Z,5.40
2018-03-14T20:33:54.215Z,6.07
2018-03-14T20:36:22.703Z,5.17
2018-03-14T20:38:51.193Z,5.20
2018-03-14T20:41:19.700Z,5.17
2018-03-14T20:43:48.190Z,6.07
2018-03-14T20:46:16.647Z,5.60
2018-03-14T20:48:45.137Z,5.70
2018-03-14T20:51:13.586Z,5.73
2018-03-14T20:53:42.048Z,6.53
2018-03-14T20:56:10.558Z,6.10
2018-03-14T20:58:39.014Z,6.70
2018-03-14T21:01:07.510Z,6.17
2018-03-14T21:03:36.002Z,6.27
2018-03-14T21:06:04.517Z,5.70
2018-03-14T21:08:32.999Z,6.40
2018-03-14T21:11:01.457Z,6.30
2018-03-14T21:13:29.958Z,6.00
2018-03-14T21:15:58.469Z,6.47
2018-03-14T21:18:26.919Z,6.10
2018-03-14T21:20:55.370Z,6.03
2018-03-14T21:23:23.918Z,5.83
2018-03-14T21:25:52.416Z,6.53
2018-03-14T21:28:20.908Z,5.57
2018-03-14T21:30:49.358Z,5.80
2018-03-14T21:33:17.852Z,5.40
2018-03-14T21:35:46.298Z,5.83
2018-03-14T21:38:15.180Z,5.20
2018-03-14T21:40:43.682Z,4.97
2018-03-14T21:43:12.208Z,5.30
2018-03-14T21:45:40.693Z,4.80
2018-03-14T21:48:09.186Z,4.70
2018-03-14T21:50:37.635Z,4.77
2018-03-14T21:53:06.154Z,5.10
2018-03-14T21:55:40.655Z,4.93
2018-03-14T21:58:09.028Z,4.40
2018-03-14T22:00:37.511Z,4.60
2018-03-14T22:03:05.966Z,5.03
2018-03-14T22:05:34.426Z,4.70
2018-03-14T22:08:02.921Z,4.73
2018-03-14T22:10:31.414Z,4.43
2018-03-14T22:12:59.867Z,4.43
2018-03-14T22:15:28.402Z,4.30
2018-03-14T22:17:56.911Z,4.53
2018-03-14T22:20:25.410Z,4.67
2018-03-14T22:22:53.901Z,4.97
2018-03-14T22:25:22.383Z,4.33
2018-03-14T22:27:50.928Z,4.10
2018-03-14T22:30:19.400Z,3.87
2018-03-14T22:32:47.949Z,4.40
2018-03-14T22:35:16.425Z,3.40
2018-03-14T22:37:44.909Z,3.80
2018-03-14T22:40:13.362Z,3.90
2018-03-14T22:42:41.871Z,3.60
2018-03-14T22:45:10.374Z,3.30
2018-03-14T22:47:38.822Z,3.90
2018-03-14T22:50:07.334Z,3.73
2018-03-14T22:52:35.791Z,3.40
2018-03-14T22:55:04.339Z,3.47
2018-03-14T22:57:32.826Z,3.60
2018-03-14T23:00:01.274Z,4.30
2018-03-14T23:02:29.810Z,7.53
2018-03-14T23:04:58.258Z,7.30
2018-03-14T23:07:26.796Z,6.37
2018-03-14T23:09:55.250Z,6.23
2018-03-14T23:12:23.733Z,5.60
2018-03-14T23:14:52.184Z,5.53
2018-03-14T23:17:20.670Z,4.27
2018-03-14T23:19:49.121Z,4.50
2018-03-14T23:22:17.610Z,4.30
2018-03-14T23:24:46.067Z,3.90
2018-03-14T23:27:14.523Z,3.90
2018-03-14T23:29:43.018Z,3.80
2018-03-14T23:32:11.466Z,4.00
2018-03-14T23:34:39.955Z,4.00
2018-03-14T23:37:08.438Z,3.73
2018-03-14T23:39:36.926Z,3.77
2018-03-14T23:42:05.419Z,4.20
2018-03-14T23:44:33.869Z,4.00
2018-03-14T23:47:02.353Z,4.30
2018-03-14T23:49:30.878Z,4.60
2018-03-14T23:51:59.322Z,5.03
2018-03-14T23:54:27.802Z,5.57
2018-03-14T23:56:56.295Z,5.80
2018-03-14T23:59:24.813Z,6.83
